Tiempo atmosférico en la estación meteorológica de Buñol, València/Valencia (585 m.)



Fecha
DESCASC
Temp. máxima en grados centígrados (hora)
DESCASC
Temp. mínima en grados centígrados (hora)
DESCASC
Temp. media en grados centígrados
DESCASC
Racha de viento máxima en m/sg (hora)
DESCASC
Velocidad máxima media en intervalos de 10 minutos(hora)
DESCASC
Precipitaciones diarias en mm
DESCASC
Precipitaciones de 00:00 a 06:00 en mm
DESCASC
Precipitaciones de 06:00 a 12:00 en mm
DESCASC
Precipitaciones de 12:00 a 18:00 en mm
DESCASC
Precipitaciones de 18:00 a 24:00 en mm
DESCASC
05-12-2019 9.5 (14:10) 7.5 (00:00) 8.5 6.94 (00:30) 1.94 (00:50) 21.8 12.8 3 5.8 0.2
04-12-2019 10.7 (14:20) 7.4 (20:50) 9 10.56 (08:10) 3.33 (08:10) 26.2 8.2 6.6 0 11.4
03-12-2019 8.3 (00:00) 5.1 (19:30) 6.7 6.94 (23:20) 2.5 (23:50) 18.8 3.2 2.4 1.8 11.4
02-12-2019 9.5 (00:00) 7.1 (00:00) 8.3 7.5 (22:40) 2.22 (23:00) 22 0 9.4 11.6 1
01-12-2019 13 (15:10) 6.4 (00:00) 9.7 12.22 (13:10) 5.28 (14:50) 0 0 0 0 0
30-11-2019 16.9 (14:40) 9.5 (00:00) 13.2 11.11 (11:40) 5.28 (11:30) 0 0 0 0 0
29-11-2019 17.2 (15:10) 10.3 (00:00) 13.8 13.33 (10:20) 6.39 (01:40) 0 0 0 0 0
28-11-2019 13.1 (14:00) 8.7 (07:30) 10.9 16.94 (11:40) 9.17 (12:00) 0 0 0 0 0
27-11-2019 14.9 (15:20) 9.4 (00:00) 12.1 14.17 (16:00) 6.11 (16:40) 0 0 0 0 0
26-11-2019 16 (13:30) 10.4 (00:00) 13.2 15 (11:20) 7.22 (11:20) 0 0 0 0 0
25-11-2019 15.4 (14:20) 7.2 (00:00) 11.3 12.78 (01:50) 5.83 (13:30) 0 0 0 0 0
24-11-2019 12.5 (15:00) 4.8 (00:00) 8.7 14.44 (10:10) 6.67 (11:20) 0 0 0 0 0
23-11-2019 11.8 (14:20) 5.9 (00:00) 8.9 16.11 (11:50) 6.94 (14:40) 1 0.8 0.2 0 0
22-11-2019 14.3 (12:50) 7.3 (00:00) 10.8 10.83 (22:20) 3.06 (18:30) 6 0 0 4.8 1.2
21-11-2019 12.2 (16:20) 5.6 (00:00) 8.9 8.89 (10:20) 3.33 (10:20) 0 0 0 0 0
20-11-2019 12 (14:20) 1.6 (08:30) 6.8 6.39 (05:30) 2.78 (05:30) 0 0 0 0 0
19-11-2019 11.9 (14:50) 0.1 (00:00) 6 7.78 (15:00) 3.33 (12:10) 0 0 0 0 0
18-11-2019 12.1 (13:00) 2.2 (00:00) 7.2 7.5 (01:20) 2.78 (01:20) 0 0 0 0 0
17-11-2019 11.3 (15:20) 1.3 (00:00) 6.3 14.17 (14:00) 5.83 (13:10) 0 0 0 0 0
16-11-2019 11.8 (14:10) 1.4 (00:00) 6.6 8.33 (23:20) 3.06 (22:40) 0 0 0 0 0
15-11-2019 10.9 (14:30) 2.7 (00:00) 6.8 12.22 (09:50) 4.72 (10:50) 0.4 0.4 0 0 0
14-11-2019 12.4 (12:00) 3.5 (00:00) 7.9 16.39 (12:00) 5.28 (09:10) 0.6 0 0 0 0.6
13-11-2019 15.4 (15:30) 6.3 (00:00) 10.8 12.22 (11:00) 4.17 (11:00) 2.8 0 2.6 0.2 0
12-11-2019 15.2 (14:00) 7.4 (00:00) 11.3 10.28 (02:00) 4.44 (15:00) 0 0 0 0 0
11-11-2019 13.7 (15:20) 4.2 (07:20) 8.9 11.67 (13:10) 5 (13:10) 0 0 0 0 0
10-11-2019 12.9 (14:20) 4.3 (00:00) 8.6 11.11 (13:30) 4.72 (09:40) 0 0 0 0 0
09-11-2019 13.8 (13:40) 6 (00:00) 9.9 14.72 (14:20) 6.11 (14:20) 0 0 0 0 0
08-11-2019 11.8 (15:30) 3.8 (07:30) 7.8 13.06 (14:00) 5.56 (14:00) 0 0 0 0 0

Gráficas

Temp. máximas Temp. mínimas Temp. medias Precipitaciones Rachas de viento máximas Velocidades máximas media en intervalos de 10 minutos

Datos horarios

Fecha y hora oficial Temperatura (ºC) Velocidad del viento (km/h) Dirección del viento Racha (km/h) Dirección de racha Precipitación (mm) Presión (hPa) Tendencia (hPa) Humedad (%)
2019-12-07 23:00:00 7.6 7 Norte 18 Norte 0 -- -- 97
2019-12-07 22:00:00 7 5 Noroeste 13 Noroeste 0 -- -- 97
2019-12-07 21:00:00 6.8 6 Noroeste 13 Noroeste 0 -- -- 97
2019-12-07 20:00:00 6.8 6 Noroeste 13 Norte 0 -- -- 97
2019-12-07 19:00:00 7.5 2 Noroeste 7 Norte 0 -- -- 92
2019-12-07 18:00:00 9.7 0 Calma 3 Norte 0 -- -- 87
2019-12-07 17:00:00 12.1 0 Calma 5 Sudoeste 0 -- -- 81
2019-12-07 16:00:00 13.4 3 Sur 6 Sur 0 -- -- 78
2019-12-07 15:00:00 14 0 Calma 9 Norte 0 -- -- 73
2019-12-07 14:00:00 13.5 5 Noroeste 15 Noroeste 0 -- -- 70
2019-12-07 13:00:00 12.4 4 Noroeste 17 Norte 0 -- -- 80
2019-12-07 12:00:00 10.3 6 Noroeste 19 Noroeste 0 -- -- 89
2019-12-07 11:00:00 8.2 5 Noroeste 13 Noroeste 0 -- -- 100
2019-12-07 10:00:00 5.6 5 Norte 14 Norte 0 -- -- 100
2019-12-07 09:00:00 4.2 7 Noroeste 20 Norte 0 -- -- 100
2019-12-07 08:00:00 4.5 6 Norte 21 Norte 0 -- -- 100
2019-12-07 07:00:00 5.1 8 Norte 17 Noroeste 0 -- -- 100
2019-12-07 06:00:00 4.1 5 Norte 12 Noroeste 0 -- -- 100
2019-12-07 05:00:00 4.3 5 Noroeste 15 Noroeste 0 -- -- 100
2019-12-07 04:00:00 3.8 4 Norte 7 Norte 0 -- -- 100
2019-12-07 03:00:00 4.5 4 Norte 10 Noroeste 0 -- -- 100
2019-12-07 02:00:00 4.8 4 Noroeste 14 Noroeste 0 -- -- 99
2019-12-07 01:00:00 5.1 4 Norte 14 Norte 0 -- -- 99
2019-12-07 00:00:00 4.8 3 Noroeste 9 Noroeste 0 -- -- 98
2019-12-06 23:00:00 5.7 3 Noroeste 10 Noroeste 0 -- -- 98
2019-12-06 22:00:00 6.6 0 Calma 4 Norte 0 -- -- 96
2019-12-06 21:00:00 8 0 Calma 4 Norte 0 -- -- 95
2019-12-06 20:00:00 9.7 0 Calma 4 Sudeste 0 -- -- 97
2019-12-06 19:00:00 9.9 0 Calma 0 Calma 0 -- -- 97
2019-12-06 18:00:00 10.1 0 Calma 2 Sur 0 -- -- 96
2019-12-06 17:00:00 10.3 0 Calma 8 Sudeste 0 -- -- 96
2019-12-06 16:00:00 10.5 3 Sudeste 8 Este 0 -- -- 95
2019-12-06 15:00:00 10.6 0 Calma 7 Sudeste 0 -- -- 95
2019-12-06 14:00:00 10.6 2 Sudeste 10 Sudeste 0 -- -- 94
2019-12-06 13:00:00 10.5 3 Sudeste 12 Sudeste 0 -- -- 96
2019-12-06 12:00:00 9.9 2 Este 8 Sudeste 0 -- -- 98
2019-12-06 11:00:00 9.5 3 Sur 12 Sudeste 0 -- -- 99
2019-12-06 10:00:00 9.2 2 Sudeste 8 Sudeste 0 -- -- 99
2019-12-06 09:00:00 8.7 0 Calma 2 Sur 0 -- -- 100
2019-12-06 08:00:00 8.4 0 Calma 3 Este 0 -- -- 99
2019-12-06 07:00:00 8.4 0 Calma 2 Norte 0 -- -- 99
2019-12-06 06:00:00 8.5 0 Calma 2 Noroeste 0 -- -- 100
2019-12-06 05:00:00 8.4 0 Calma 2 Sur 0.2 -- -- 99
2019-12-06 04:00:00 8.2 0 Calma 2 Noroeste 0 -- -- 99
2019-12-06 03:00:00 8.2 0 Calma 5 Noroeste 0 -- -- 99
2019-12-06 02:00:00 8.1 2 Norte 6 Noroeste 0.2 -- -- 99
2019-12-06 01:00:00 8.1 0 Calma 3 Norte 0 -- -- 99
2019-12-06 00:00:00 8.3 0 Calma 4 Noroeste 0 -- -- 98
2019-12-05 23:00:00 8.4 0 Calma 2 Este 0.2 -- -- 98
2019-12-05 22:00:00 8.5 0 Calma 3 Sudeste 0 -- -- 98
2019-12-05 21:00:00 8.7 0 Calma 6 Sudeste 0 -- -- 98
2019-12-05 20:00:00 8.7 2 Sudeste 10 Sudeste 0 -- -- 97
2019-12-05 19:00:00 8.9 3 Sudeste 13 Sudeste 0 -- -- 97
2019-12-05 18:00:00 9 2 Este 18 Sudeste 1 -- -- 97
2019-12-05 17:00:00 9.1 3 Este 18 Norte 1.4 -- -- 97
2019-12-05 16:00:00 9.2 3 Este 14 Nordeste 1.2 -- -- 96
2019-12-05 15:00:00 9.5 3 Este 15 Este 0.6 -- -- 96
2019-12-05 14:00:00 9.4 2 Sur 14 Norte 0.4 -- -- 97
2019-12-05 13:00:00 9.2 2 Sudoeste 12 Sudeste 1.2 -- -- 97
2019-12-05 12:00:00 9.4 3 Norte 12 Nordeste 1.6 -- -- 96
2019-12-05 11:00:00 9.3 2 Sur 14 Sudeste 0 -- -- 94
2019-12-05 10:00:00 8.9 5 Este 16 Este 0 -- -- 95
2019-12-05 09:00:00 8.1 2 Oeste 16 Norte 0 -- -- 95
2019-12-05 08:00:00 7.9 2 Nordeste 13 Nordeste 0 -- -- 96
2019-12-05 07:00:00 8.1 3 Nordeste 17 Sudeste 1.4 -- -- 97
2019-12-05 06:00:00 8.3 4 Sudeste 19 Sudeste 1 -- -- 98
2019-12-05 05:00:00 8.2 5 Sudeste 14 Sudeste 1.4 -- -- 98
2019-12-05 04:00:00 8.2 4 Este 19 Este 1.2 -- -- 97
2019-12-05 03:00:00 8.2 3 Nordeste 22 Nordeste 2.4 -- -- 96
2019-12-05 02:00:00 8 4 Norte 22 Norte 3.8 -- -- 96
2019-12-05 01:00:00 8 3 Norte 25 Norte 3 -- -- 96
2019-12-05 00:00:00 7.5 4 Norte 15 Noroeste 5.2 -- -- 98
2019-12-04 23:00:00 7.5 4 Noroeste 14 Noroeste 2.2 -- -- 98
2019-12-04 22:00:00 7.5 4 Norte 15 Norte 0.2 -- -- 97
2019-12-04 21:00:00 7.4 8 Norte 18 Norte 1.8 -- -- 97
2019-12-04 20:00:00 7.8 4 Noroeste 12 Noroeste 1.8 -- -- 97
2019-12-04 19:00:00 8.3 4 Noroeste 10 Oeste 0.2 -- -- 94
2019-12-04 18:00:00 9.1 2 Norte 6 Norte 0 -- -- 89
2019-12-04 17:00:00 9.6 0 Calma 11 Nordeste 0 -- -- 84
2019-12-04 16:00:00 10.2 5 Nordeste 17 Nordeste 0 -- -- 79
2019-12-04 15:00:00 10.5 3 Nordeste 7 Norte 0 -- -- 78
2019-12-04 14:00:00 10.6 0 Calma 9 Noroeste 0 -- -- 79
2019-12-04 13:00:00 9.7 4 Noroeste 14 Norte 0 -- -- 83
2019-12-04 12:00:00 8.8 3 Noroeste 16 Norte 0.2 -- -- 89
2019-12-04 11:00:00 7.6 3 Norte 21 Norte 0 -- -- 91
2019-12-04 10:00:00 7.7 8 Nordeste 27 Nordeste 0.4 -- -- 88
2019-12-04 09:00:00 7.6 5 Norte 38 Nordeste 0.4 -- -- 92
2019-12-04 08:00:00 7.9 7 Norte 34 Norte 1.4 -- -- 94
2019-12-04 07:00:00 8.2 8 Norte 23 Noroeste 4.2 -- -- 95
2019-12-04 06:00:00 8.5 5 Norte 28 Nordeste 3.2 -- -- 94
2019-12-04 05:00:00 8.7 6 Nordeste 27 Nordeste 0.4 -- -- 93
2019-12-04 04:00:00 8.7 5 Norte 30 Nordeste 0.2 -- -- 93
2019-12-04 03:00:00 8.6 8 Nordeste 28 Nordeste 0.8 -- -- 95
2019-12-04 02:00:00 8.5 5 Norte 26 Nordeste 0.4 -- -- 95
2019-12-04 01:00:00 8 3 Nordeste 19 Nordeste 3.2 -- -- 97
2019-12-04 00:00:00 7.8 4 Nordeste 25 Nordeste 1.6 -- -- 95
2019-12-03 23:00:00 7.6 6 Nordeste 24 Nordeste 3.8 -- -- 95
2019-12-03 22:00:00 6.5 2 Norte 11 Noroeste 4.4 -- -- 96
2019-12-03 21:00:00 5.8 0 Calma 23 Noroeste 1.4 -- -- 94
2019-12-03 20:00:00 5.4 2 Sur 9 Noroeste 0 -- -- 94
2019-12-03 19:00:00 5.3 0 Calma 5 Sudoeste 0.2 -- -- 97
2019-12-03 18:00:00 5.5 0 Calma 5 Sudeste 0 -- -- 96
2019-12-03 17:00:00 5.9 0 Calma 6 Sur 0 -- -- 97
2019-12-03 16:00:00 5.8 0 Calma 9 Sudeste 0.2 -- -- 97
2019-12-03 15:00:00 5.8 4 Sur 16 Sudeste 1 -- -- 97
2019-12-03 14:00:00 5.9 5 Sudeste 19 Sudeste 0.4 -- -- 96
2019-12-03 13:00:00 6.2 4 Sudeste 12 Este 0.2 -- -- 96
2019-12-03 12:00:00 6.3 3 Este 12 Norte 0.2 -- -- 97
2019-12-03 11:00:00 6.4 3 Sudeste 13 Sudeste 0.6 -- -- 97
2019-12-03 10:00:00 6.4 3 Sudeste 10 Nordeste 0.4 -- -- 97
2019-12-03 09:00:00 6.4 2 Sudeste 9 Sudeste 0.6 -- -- 97
2019-12-03 08:00:00 6.4 0 Calma 11 Sur 0.2 -- -- 97
2019-12-03 07:00:00 6.6 3 Sur 16 Este 0.4 -- -- 97
2019-12-03 06:00:00 7.1 5 Sudeste 18 Sudeste 1 -- -- 96
2019-12-03 05:00:00 7.5 3 Sur 9 Este 1.4 -- -- 97
2019-12-03 04:00:00 7.7 4 Sudeste 20 Sudeste 0.6 -- -- 96
2019-12-03 03:00:00 8.1 4 Sudeste 16 Este 0.2 -- -- 95
2019-12-03 02:00:00 8.3 4 Sudeste 16 Sudeste 0 -- -- 94
2019-12-03 01:00:00 8.3 6 Sudeste 18 Este 0 -- -- 94
2019-12-03 00:00:00 8.3 4 Sudeste 18 Este 0 -- -- 94
2019-12-02 23:00:00 8.2 8 Sudeste 27 Sudeste 0 -- -- 95
2019-12-02 22:00:00 8.1 3 Sur 21 Este 0 -- -- 96
2019-12-02 21:00:00 7.7 3 Sur 10 Este 0 -- -- 97
2019-12-02 20:00:00 7.5 3 Sudeste 9 Este 0.4 -- -- 96
2019-12-02 19:00:00 7.5 3 Sudeste 17 Este 0.6 -- -- 96
2019-12-02 18:00:00 7.6 2 Sudeste 13 Sudeste 2 -- -- 96
2019-12-02 17:00:00 7.7 4 Sudeste 18 Sudeste 1.2 -- -- 96
2019-12-02 16:00:00 7.9 4 Sudeste 19 Sudeste 0.8 -- -- 95
2019-12-02 15:00:00 8 3 Sudeste 18 Este 3.4 -- -- 95
2019-12-02 14:00:00 8.1 4 Sudeste 20 Este 2.6 -- -- 95
2019-12-02 13:00:00 8 6 Este 23 Nordeste 1.6 -- -- 94
2019-12-02 12:00:00 7.9 3 Sur 23 Este 3.8 -- -- 95
2019-12-02 11:00:00 7.7 5 Norte 19 Este 2.6 -- -- 93
2019-12-02 10:00:00 7.3 3 Sudeste 13 Nordeste 0.6 -- -- 92
2019-12-02 09:00:00 7.2 2 Nordeste 13 Este 0.6 -- -- 92
2019-12-02 08:00:00 7.1 0 Calma 9 Norte 1 -- -- 93
2019-12-02 07:00:00 7.6 0 Calma 4 Noroeste 0.8 -- -- 91
2019-12-02 06:00:00 8.4 0 Calma 8 Sur 0 -- -- 80
2019-12-02 05:00:00 8.4 2 Sudeste 8 Sudeste 0 -- -- 81
2019-12-02 04:00:00 8.4 0 Calma 9 Sudeste 0 -- -- 80
2019-12-02 03:00:00 8.8 2 Sudeste 12 Sudeste 0 -- -- 78
2019-12-02 02:00:00 9.2 5 Sudeste 18 Sur 0 -- -- 86
2019-12-02 01:00:00 9.4 6 Sudeste 19 Este 0 -- -- 87
2019-12-02 00:00:00 9.5 3 Sudeste 18 Este 0 -- -- 87
2019-12-01 23:00:00 9.5 3 Sudeste 17 Sur 0 -- -- 88
2019-12-01 22:00:00 8.3 4 Sudeste 12 Sudeste 0 -- -- 92
2019-12-01 21:00:00 6.7 3 Noroeste 6 Noroeste 0 -- -- 77
2019-12-01 20:00:00 6.6 2 Noroeste 9 Noroeste 0 -- -- 75
2019-12-01 19:00:00 7.9 4 Noroeste 9 Norte 0 -- -- 72
2019-12-01 18:00:00 10.1 2 Oeste 17 Noroeste 0 -- -- 64
2019-12-01 17:00:00 11.6 6 Noroeste 21 Noroeste 0 -- -- 60
2019-12-01 16:00:00 12.8 8 Noroeste 30 Oeste 0 -- -- 56
2019-12-01 15:00:00 12.8 13 Noroeste 43 Noroeste 0 -- -- 55
2019-12-01 14:00:00 12.5 18 Noroeste 44 Noroeste 0 -- -- 55
2019-12-01 13:00:00 12.1 15 Noroeste 39 Noroeste 0 -- -- 57
2019-12-01 12:00:00 11.8 12 Noroeste 33 Noroeste 0 -- -- 61
2019-12-01 11:00:00 10.7 8 Noroeste 33 Noroeste 0 -- -- 70
2019-12-01 10:00:00 10 8 Noroeste 23 Norte 0 -- -- 81
2019-12-01 09:00:00 8.7 3 Norte 6 Noroeste 0 -- -- 88
2019-12-01 08:00:00 10.2 0 Calma 8 Oeste 0 -- -- 83
2019-12-01 07:00:00 11.1 2 Noroeste 8 Oeste 0 -- -- 86
2019-12-01 06:00:00 11.4 0 Calma 11 Sudoeste 0 -- -- 87
2019-12-01 05:00:00 11.4 0 Calma 26 Oeste 0 -- -- 85
2019-12-01 04:00:00 11.5 6 Oeste 28 Noroeste 0 -- -- 85
2019-12-01 03:00:00 9.6 3 Noroeste 13 Noroeste 0 -- -- 91
2019-12-01 02:00:00 8.9 4 Noroeste 12 Oeste 0 -- -- 92
2019-12-01 01:00:00 9.3 5 Noroeste 18 Oeste 0 -- -- 90
2019-12-01 00:00:00 9.5 9 Noroeste 18 Noroeste 0 -- -- 89
2019-11-30 23:00:00 9.8 4 Oeste 12 Noroeste 0 -- -- 88
2019-11-30 22:00:00 10.4 6 Noroeste 12 Noroeste 0 -- -- 85
2019-11-30 21:00:00 11 3 Noroeste 12 Noroeste 0 -- -- 82
2019-11-30 20:00:00 11.8 5 Noroeste 14 Norte 0 -- -- 79
2019-11-30 19:00:00 12.4 5 Noroeste 13 Noroeste 0 -- -- 77
2019-11-30 18:00:00 14.1 6 Noroeste 26 Noroeste 0 -- -- 71
2019-11-30 17:00:00 15.6 8 Noroeste 28 Noroeste 0 -- -- 66
2019-11-30 16:00:00 16.5 11 Noroeste 31 Oeste 0 -- -- 62
2019-11-30 15:00:00 16.8 13 Noroeste 32 Noroeste 0 -- -- 61
2019-11-30 14:00:00 16.6 11 Noroeste 33 Oeste 0 -- -- 63
2019-11-30 13:00:00 16.2 13 Noroeste 33 Noroeste 0 -- -- 67
2019-11-30 12:00:00 15.2 13 Noroeste 40 Noroeste 0 -- -- 72
2019-11-30 11:00:00 13.4 16 Noroeste 38 Noroeste 0 -- -- 81
2019-11-30 10:00:00 11.6 12 Noroeste 32 Norte 0 -- -- 89
2019-11-30 09:00:00 10.2 2 Norte 18 Noroeste 0 -- -- 93
2019-11-30 08:00:00 10.4 5 Norte 17 Noroeste 0 -- -- 93
2019-11-30 07:00:00 10.4 5 Norte 17 Noroeste 0 -- -- 94
2019-11-30 06:00:00 9.9 3 Noroeste 12 Noroeste 0 -- -- 94
2019-11-30 05:00:00 10.1 4 Norte 16 Noroeste 0 -- -- 94
2019-11-30 04:00:00 11.2 8 Noroeste 23 Norte 0 -- -- 92
2019-11-30 03:00:00 11.5 7 Noroeste 26 Noroeste 0 -- -- 92
2019-11-30 02:00:00 11.4 9 Norte 22 Noroeste 0 -- -- 92
2019-11-30 01:00:00 11.5 8 Noroeste 18 Norte 0 -- -- 92
2019-11-30 00:00:00 11.2 8 Noroeste 21 Noroeste 0 -- -- 92
2019-11-29 23:00:00 11.3 6 Noroeste 26 Noroeste 0 -- -- 90
2019-11-29 22:00:00 11.5 10 Noroeste 21 Oeste 0 -- -- 90
2019-11-29 21:00:00 11.6 6 Noroeste 20 Norte 0 -- -- 90
2019-11-29 20:00:00 12.3 9 Noroeste 21 Norte 0 -- -- 86
2019-11-29 19:00:00 13 7 Norte 21 Norte 0 -- -- 84
2019-11-29 18:00:00 14.1 3 Noroeste 22 Norte 0 -- -- 77
2019-11-29 17:00:00 15.4 6 Noroeste 29 Oeste 0 -- -- 71
2019-11-29 16:00:00 16.6 10 Noroeste 33 Noroeste 0 -- -- 67
2019-11-29 15:00:00 17 14 Noroeste 33 Oeste 0 -- -- 64
2019-11-29 14:00:00 15.3 11 Noroeste 27 Oeste 0 -- -- 73
2019-11-29 13:00:00 13.9 12 Noroeste 34 Oeste 0 -- -- 77
2019-11-29 12:00:00 12.6 10 Noroeste 47 Oeste 0 -- -- 82
2019-11-29 11:00:00 12.1 15 Noroeste 48 Noroeste 0 -- -- 84
2019-11-29 10:00:00 11.8 14 Noroeste 42 Oeste 0 -- -- 84
2019-11-29 09:00:00 11.4 17 Noroeste 40 Noroeste 0 -- -- 83
2019-11-29 08:00:00 11 21 Noroeste 46 Oeste 0 -- -- 83
2019-11-29 07:00:00 10.8 15 Noroeste 36 Noroeste 0 -- -- 82
2019-11-29 06:00:00 10.8 21 Noroeste 42 Noroeste 0 -- -- 81
2019-11-29 05:00:00 10.8 22 Noroeste 47 Noroeste 0 -- -- 80
2019-11-29 04:00:00 11 16 Noroeste 46 Oeste 0 -- -- 80
2019-11-29 03:00:00 10.7 18 Noroeste 46 Noroeste 0 -- -- 82
2019-11-29 02:00:00 10.3 21 Noroeste 45 Oeste 0 -- -- 83
2019-11-29 01:00:00 10.3 15 Norte 38 Norte 0 -- -- 84
2019-11-29 00:00:00 10.5 14 Norte 35 Noroeste 0 -- -- 83
2019-11-28 23:00:00 10.3 12 Norte 31 Norte 0 -- -- 84
2019-11-28 22:00:00 10.2 12 Norte 30 Noroeste 0 -- -- 83
2019-11-28 21:00:00 10.6 14 Norte 38 Norte 0 -- -- 80
2019-11-28 20:00:00 10.7 13 Noroeste 41 Norte 0 -- -- 80
2019-11-28 19:00:00 10.4 12 Noroeste 39 Noroeste 0 -- -- 81
2019-11-28 18:00:00 11.1 15 Noroeste 58 Noroeste 0 -- -- 78
2019-11-28 17:00:00 11.5 21 Noroeste 53 Noroeste 0 -- -- 75
2019-11-28 16:00:00 11.9 21 Noroeste 53 Noroeste 0 -- -- 73
2019-11-28 15:00:00 12.3 15 Noroeste 54 Noroeste 0 -- -- 72
2019-11-28 14:00:00 13.1 19 Noroeste 50 Noroeste 0 -- -- 69
2019-11-28 13:00:00 12.7 19 Noroeste 58 Noroeste 0 -- -- 71
2019-11-28 12:00:00 11.6 33 Noroeste 61 Oeste 0 -- -- 75
2019-11-28 11:00:00 11.1 20 Noroeste 42 Noroeste 0 -- -- 77
2019-11-28 10:00:00 10.7 15 Noroeste 37 Oeste 0 -- -- 78
2019-11-28 09:00:00 9.7 16 Oeste 45 Oeste 0 -- -- 80
2019-11-28 08:00:00 9 9 Oeste 31 Noroeste 0 -- -- 82
2019-11-28 07:00:00 9.1 9 Noroeste 33 Noroeste 0 -- -- 83
2019-11-28 06:00:00 9 12 Norte 30 Noroeste 0 -- -- 84
2019-11-28 05:00:00 9.2 12 Norte 31 Noroeste 0 -- -- 83
2019-11-28 04:00:00 9.2 9 Noroeste 26 Norte 0 -- -- 83
2019-11-28 03:00:00 9 8 Norte 26 Norte 0 -- -- 83
2019-11-28 02:00:00 9.2 11 Noroeste 31 Oeste 0 -- -- 83
2019-11-28 01:00:00 9.2 7 Noroeste 22 Oeste 0 -- -- 83
2019-11-28 00:00:00 9.4 6 Noroeste 17 Noroeste 0 -- -- 81
2019-11-27 23:00:00 9.6 5 Noroeste 16 Noroeste 0 -- -- 80
2019-11-27 22:00:00 10 7 Norte 20 Norte 0 -- -- 79
2019-11-27 21:00:00 10.4 8 Norte 23 Norte 0 -- -- 78
2019-11-27 20:00:00 10.9 11 Norte 32 Noroeste 0 -- -- 75
2019-11-27 19:00:00 11.1 12 Noroeste 26 Noroeste 0 -- -- 74
2019-11-27 18:00:00 11.9 13 Noroeste 39 Noroeste 0 -- -- 71
2019-11-27 17:00:00 13 22 Noroeste 46 Oeste 0 -- -- 66
2019-11-27 16:00:00 14.1 21 Noroeste 51 Noroeste 0 -- -- 62
2019-11-27 15:00:00 14.6 18 Noroeste 48 Noroeste 0 -- -- 60
2019-11-27 14:00:00 14.8 14 Noroeste 37 Noroeste 0 -- -- 64
2019-11-27 06:00:00 -- -- -- -- -- -- -- -- --
2019-11-27 05:00:00 -- -- -- -- -- -- -- -- --
2019-11-27 04:00:00 -- -- -- -- -- -- -- -- --
2019-11-27 03:00:00 12.8 6 Oeste 38 Oeste 0 -- -- 91
2019-11-27 02:00:00 13.7 10 Oeste 42 Oeste 0 -- -- 82
2019-11-27 01:00:00 13.4 9 Oeste 30 Oeste 0 -- -- 83
2019-11-27 00:00:00 13 6 Noroeste 26 Oeste 0 -- -- 84
2019-11-26 23:00:00 12.8 4 Noroeste 25 Noroeste 0 -- -- 84
2019-11-26 22:00:00 13 7 Noroeste 24 Oeste 0 -- -- 85
2019-11-26 21:00:00 13.1 7 Noroeste 24 Noroeste 0 -- -- 86
2019-11-26 20:00:00 13.7 12 Noroeste 39 Noroeste 0 -- -- 82
2019-11-26 19:00:00 13.7 12 Noroeste 48 Noroeste 0 -- -- 80
2019-11-26 18:00:00 14 13 Noroeste 37 Noroeste 0 -- -- 80
2019-11-26 17:00:00 14.6 14 Noroeste 41 Noroeste 0 -- -- 78
2019-11-26 16:00:00 15 18 Noroeste 45 Noroeste 0 -- -- 75
2019-11-26 15:00:00 15.7 16 Noroeste 45 Noroeste 0 -- -- 71
2019-11-26 14:00:00 15.7 21 Noroeste 50 Noroeste 0 -- -- 67
2019-11-26 13:00:00 15.5 18 Noroeste 46 Noroeste 0 -- -- 63
2019-11-26 12:00:00 14.7 22 Noroeste 54 Noroeste 0 -- -- 66
2019-11-26 11:00:00 13.9 25 Noroeste 50 Noroeste 0 -- -- 69
2019-11-26 10:00:00 12.9 18 Noroeste 41 Noroeste 0 -- -- 76
2019-11-26 09:00:00 11.7 13 Noroeste 31 Noroeste 0 -- -- 84
2019-11-26 08:00:00 11.4 11 Norte 33 Oeste 0 -- -- 85
2019-11-26 07:00:00 11.5 9 Noroeste 33 Noroeste 0 -- -- 84
2019-11-26 06:00:00 11.6 13 Noroeste 32 Noroeste 0 -- -- 85
2019-11-26 05:00:00 11.2 9 Noroeste 27 Noroeste 0 -- -- 87
2019-11-26 04:00:00 11.2 10 Norte 28 Noroeste 0 -- -- 88
2019-11-26 03:00:00 10.7 12 Noroeste 29 Noroeste 0 -- -- 89
2019-11-26 02:00:00 10.5 4 Noroeste 19 Noroeste 0 -- -- 90
2019-11-26 01:00:00 10.6 4 Norte 17 Norte 0 -- -- 88
2019-11-26 00:00:00 11.1 4 Norte 14 Norte 0 -- -- 85
2019-11-25 23:00:00 11.4 4 Norte 16 Noroeste 0 -- -- 85
2019-11-25 22:00:00 11.8 4 Norte 19 Noroeste 0 -- -- 84
2019-11-25 21:00:00 11.7 6 Norte 22 Noroeste 0 -- -- 88
2019-11-25 20:00:00 11.9 7 Norte 19 Norte 0 -- -- 88
2019-11-25 19:00:00 12.3 0 Calma 7 Nordeste 0 -- -- 85
2019-11-25 18:00:00 13 3 Norte 22 Oeste 0 -- -- 82
2019-11-25 17:00:00 14 9 Noroeste 31 Oeste 0 -- -- 78
2019-11-25 16:00:00 14.8 10 Noroeste 41 Noroeste 0 -- -- 74
2019-11-25 15:00:00 15.4 16 Noroeste 45 Noroeste 0 -- -- 68
2019-11-25 14:00:00 15.2 14 Noroeste 41 Noroeste 0 -- -- 69
2019-11-25 13:00:00 14.2 12 Noroeste 38 Noroeste 0 -- -- 76
2019-11-25 12:00:00 13 12 Noroeste 34 Oeste 0 -- -- 80
2019-11-25 11:00:00 11.4 11 Noroeste 32 Noroeste 0 -- -- 86
2019-11-25 10:00:00 10.1 9 Noroeste 24 Noroeste 0 -- -- 92
2019-11-25 09:00:00 9.4 10 Oeste 30 Oeste 0 -- -- 93
2019-11-25 08:00:00 9.2 6 Noroeste 28 Oeste 0 -- -- 93
2019-11-25 07:00:00 9.2 6 Noroeste 31 Noroeste 0 -- -- 89
2019-11-25 06:00:00 9.3 6 Noroeste 26 Noroeste 0 -- -- 85
2019-11-25 05:00:00 8.7 4 Noroeste 33 Noroeste 0 -- -- 85
2019-11-25 04:00:00 8.3 10 Noroeste 30 Oeste 0 -- -- 84
2019-11-25 03:00:00 7.8 15 Noroeste 41 Noroeste 0 -- -- 84
2019-11-25 02:00:00 7.9 20 Noroeste 46 Noroeste 0 -- -- 81
2019-11-25 01:00:00 7.8 16 Noroeste 45 Noroeste 0 -- -- 80
2019-11-25 00:00:00 7.2 15 Noroeste 42 Noroeste 0 -- -- 81
2019-11-24 23:00:00 7.2 10 Noroeste 39 Oeste 0 -- -- 80
2019-11-24 22:00:00 7.4 12 Noroeste 41 Noroeste 0 -- -- 78
2019-11-24 21:00:00 7.7 11 Noroeste 39 Norte 0 -- -- 75
2019-11-24 20:00:00 8.3 13 Noroeste 33 Noroeste 0 -- -- 70
2019-11-24 19:00:00 8.9 10 Noroeste 33 Noroeste 0 -- -- 65
2019-11-24 18:00:00 10.1 13 Noroeste 35 Noroeste 0 -- -- 63
2019-11-24 17:00:00 11.9 13 Noroeste 48 Noroeste 0 -- -- 54
2019-11-24 16:00:00 12.2 20 Noroeste 49 Noroeste 0 -- -- 56
2019-11-24 15:00:00 12.5 14 Noroeste 46 Oeste 0 -- -- 53
2019-11-24 14:00:00 12.1 18 Noroeste 44 Noroeste 0 -- -- 55
2019-11-24 13:00:00 11.2 17 Noroeste 46 Noroeste 0 -- -- 57
2019-11-24 12:00:00 10.6 20 Noroeste 52 Oeste 0 -- -- 60
2019-11-24 11:00:00 8.9 21 Noroeste 52 Oeste 0 -- -- 66
2019-11-24 10:00:00 7.2 21 Noroeste 46 Noroeste 0 -- -- 72
2019-11-24 09:00:00 5.5 14 Noroeste 34 Oeste 0 -- -- 78
2019-11-24 08:00:00 4.8 4 Noroeste 27 Norte 0 -- -- 80
2019-11-24 07:00:00 4.8 9 Norte 19 Norte 0 -- -- 80
2019-11-24 06:00:00 4.9 6 Norte 20 Noroeste 0 -- -- 80
2019-11-24 05:00:00 5.1 5 Norte 16 Norte 0 -- -- 78
2019-11-24 04:00:00 5.7 4 Norte 17 Norte 0 -- -- 75
2019-11-24 03:00:00 6 5 Norte 33 Oeste 0 -- -- 73
2019-11-24 02:00:00 6.1 7 Noroeste 26 Noroeste 0 -- -- 73
2019-11-24 01:00:00 6.7 9 Noroeste 30 Noroeste 0 -- -- 72
2019-11-24 00:00:00 7 8 Noroeste 24 Noroeste 0 -- -- 71
2019-11-23 23:00:00 7 6 Noroeste 19 Noroeste 0 -- -- 72
2019-11-23 22:00:00 7.7 8 Norte 30 Oeste 0 -- -- 68
2019-11-23 21:00:00 8.1 9 Noroeste 26 Oeste 0 -- -- 67
2019-11-23 20:00:00 8.3 7 Noroeste 22 Noroeste 0 -- -- 66
2019-11-23 19:00:00 9.1 9 Noroeste 31 Noroeste 0 -- -- 60
2019-11-23 18:00:00 9.8 6 Noroeste 35 Oeste 0 -- -- 58
2019-11-23 17:00:00 10.8 16 Noroeste 43 Oeste 0 -- -- 52
2019-11-23 16:00:00 11.4 14 Noroeste 50 Oeste 0 -- -- 51
2019-11-23 15:00:00 11.5 22 Noroeste 56 Noroeste 0 -- -- 54
2019-11-23 14:00:00 11.7 18 Noroeste 46 Noroeste 0 -- -- 57
2019-11-23 13:00:00 10.7 14 Noroeste 55 Oeste 0 -- -- 66
2019-11-23 12:00:00 9.4 23 Noroeste 58 Norte 0 -- -- 70
2019-11-23 11:00:00 8.2 18 Noroeste 48 Oeste 0 -- -- 77
2019-11-23 10:00:00 7.6 11 Noroeste 41 Noroeste 0 -- -- 81
2019-11-23 09:00:00 7.4 19 Noroeste 49 Oeste 0 -- -- 83
2019-11-23 08:00:00 6.6 14 Noroeste 40 Oeste 0 -- -- 87
2019-11-23 07:00:00 6 10 Noroeste 28 Noroeste 0.2 -- -- 90
2019-11-23 06:00:00 6.8 6 Noroeste 31 Noroeste 0.6 -- -- 90
2019-11-23 05:00:00 7.8 6 Oeste 42 Oeste 0.2 -- -- 92
2019-11-23 04:00:00 9 8 Noroeste 26 Noroeste 0 -- -- 81
2019-11-23 03:00:00 9.7 6 Noroeste 36 Noroeste 0 -- -- 85
2019-11-23 02:00:00 9.8 6 Oeste 28 Noroeste 0 -- -- 86
2019-11-23 01:00:00 9.5 6 Oeste 24 Noroeste 0 -- -- 89
2019-11-23 00:00:00 10.4 8 Oeste 30 Oeste 0 -- -- 89
2019-11-22 23:00:00 10.5 5 Noroeste 39 Oeste 0 -- -- 92
2019-11-22 22:00:00 10.5 3 Oeste 16 Sudoeste 0 -- -- 94
2019-11-22 21:00:00 11.2 4 Oeste 28 Sur 0.2 -- -- 94
2019-11-22 20:00:00 11 2 Oeste 18 Sudoeste 0.8 -- -- 95
2019-11-22 19:00:00 11.2 6 Sudoeste 32 Sudoeste 0.2 -- -- 93
2019-11-22 18:00:00 11.1 5 Sur 20 Sudeste 0.8 -- -- 94
2019-11-22 17:00:00 11.5 4 Sudeste 13 Sudeste 3.2 -- -- 92
2019-11-22 16:00:00 12.4 2 Sur 14 Sudoeste 0.8 -- -- 88
2019-11-22 15:00:00 13.4 3 Sur 16 Este 0 -- -- 78
2019-11-22 14:00:00 14 7 Sur 22 Sudoeste 0 -- -- 70
2019-11-22 13:00:00 14.2 7 Sur 18 Sur 0 -- -- 68
2019-11-22 12:00:00 12.7 3 Sur 8 Sur 0 -- -- 77
2019-11-22 11:00:00 10.2 0 Calma 10 Norte 0 -- -- 88
2019-11-22 10:00:00 8.9 3 Noroeste 10 Noroeste 0 -- -- 92
2019-11-22 09:00:00 8.1 2 Noroeste 12 Norte 0 -- -- 94
2019-11-22 08:00:00 7.9 6 Norte 15 Noroeste 0 -- -- 95
2019-11-22 07:00:00 7.6 0 Calma 6 Noroeste 0 -- -- 96
2019-11-22 06:00:00 7.6 3 Noroeste 8 Noroeste 0 -- -- 96
2019-11-22 05:00:00 7.5 3 Noroeste 15 Oeste 0 -- -- 95
2019-11-22 04:00:00 7.4 4 Noroeste 8 Noroeste 0 -- -- 95
2019-11-22 03:00:00 8 3 Oeste 7 Oeste 0 -- -- 94
2019-11-22 02:00:00 7.8 2 Noroeste 9 Noroeste 0 -- -- 94
2019-11-22 01:00:00 8.2 5 Noroeste 13 Noroeste 0 -- -- 93
2019-11-22 00:00:00 8.7 3 Noroeste 18 Noroeste 0 -- -- 90
2019-11-21 23:00:00 9.2 5 Noroeste 17 Noroeste 0 -- -- 89
2019-11-21 22:00:00 9.1 4 Noroeste 12 Norte 0 -- -- 89
2019-11-21 21:00:00 8.8 3 Noroeste 17 Oeste 0 -- -- 91
2019-11-21 20:00:00 8.7 2 Noroeste 6 Noroeste 0 -- -- 91
2019-11-21 19:00:00 9.1 3 Noroeste 5 Noroeste 0 -- -- 85
2019-11-21 18:00:00 10 0 Calma 6 Oeste 0 -- -- 75
2019-11-21 17:00:00 11.5 2 Sudoeste 14 Sudoeste 0 -- -- 69
2019-11-21 16:00:00 12 3 Oeste 21 Oeste 0 -- -- 68
2019-11-21 15:00:00 11.6 4 Noroeste 23 Noroeste 0 -- -- 70
2019-11-21 14:00:00 11 6 Noroeste 27 Noroeste 0 -- -- 73
2019-11-21 13:00:00 10.4 9 Noroeste 29 Oeste 0 -- -- 77
2019-11-21 12:00:00 9.6 10 Noroeste 26 Noroeste 0 -- -- 81
2019-11-21 11:00:00 9.6 5 Noroeste 32 Noroeste 0 -- -- 78
2019-11-21 10:00:00 8.4 8 Noroeste 21 Norte 0 -- -- 85
2019-11-21 09:00:00 7.1 5 Noroeste 19 Noroeste 0 -- -- 89
2019-11-21 08:00:00 -- -- -- -- -- -- -- -- --
2019-11-21 07:00:00 -- -- -- -- -- -- -- -- --
2019-11-21 06:00:00 -- -- -- -- -- -- -- -- --
2019-11-21 05:00:00 -- -- -- -- -- -- -- -- --
2019-11-21 04:00:00 -- -- -- -- -- -- -- -- --
2019-11-21 03:00:00 -- -- -- -- -- -- -- -- --
2019-11-21 02:00:00 -- -- -- -- -- -- -- -- --
2019-11-21 01:00:00 -- -- -- -- -- -- -- -- --
2019-11-21 00:00:00 -- -- -- -- -- -- -- -- --
2019-11-20 23:00:00 -- -- -- -- -- -- -- -- --
2019-11-20 22:00:00 -- -- -- -- -- -- -- -- --
2019-11-20 21:00:00 -- -- -- -- -- -- -- -- --
2019-11-20 20:00:00 -- -- -- -- -- -- -- -- --
2019-11-20 19:00:00 7.6 0 Calma 3 Noroeste 0 -- -- 64
2019-11-20 18:00:00 8.9 0 Calma 7 Oeste 0 -- -- 58
2019-11-20 17:00:00 10 0 Calma 15 Sudoeste 0 -- -- 53
2019-11-20 16:00:00 11.7 4 Oeste 20 Oeste 0 -- -- 47
2019-11-20 15:00:00 12 5 Oeste 19 Noroeste 0 -- -- 48
2019-11-20 14:00:00 11.7 7 Oeste 21 Oeste 0 -- -- 51
2019-11-20 13:00:00 11.3 5 Oeste 18 Sudoeste 0 -- -- 56
2019-11-20 12:00:00 10.1 4 Noroeste 17 Oeste 0 -- -- 63
2019-11-20 11:00:00 8.9 6 Noroeste 15 Oeste 0 -- -- 68
2019-11-20 10:00:00 5.6 4 Noroeste 17 Noroeste 0 -- -- 75
2019-11-20 09:00:00 2.7 7 Norte 14 Noroeste 0 -- -- 83
2019-11-20 08:00:00 2.2 3 Noroeste 16 Noroeste 0 -- -- 82
2019-11-20 07:00:00 3 8 Norte 20 Norte 0 -- -- 82
2019-11-20 06:00:00 3.4 10 Norte 23 Noroeste 0 -- -- 78
2019-11-20 05:00:00 3.7 8 Norte 19 Norte 0 -- -- 78
2019-11-20 04:00:00 2.9 4 Noroeste 8 Noroeste 0 -- -- 83
2019-11-20 03:00:00 3.4 3 Noroeste 10 Noroeste 0 -- -- 81
2019-11-20 02:00:00 3.8 4 Noroeste 12 Norte 0 -- -- 80
2019-11-20 01:00:00 3.8 4 Noroeste 12 Oeste 0 -- -- 81
2019-11-20 00:00:00 3.6 5 Noroeste 13 Noroeste 0 -- -- 80
2019-11-19 23:00:00 4.9 5 Noroeste 13 Noroeste 0 -- -- 75
2019-11-19 22:00:00 6.1 4 Noroeste 16 Noroeste 0 -- -- 70
2019-11-19 21:00:00 6.1 4 Noroeste 15 Noroeste 0 -- -- 69
2019-11-19 20:00:00 6.7 3 Noroeste 10 Noroeste 0 -- -- 66
2019-11-19 19:00:00 7.3 3 Noroeste 15 Norte 0 -- -- 64
2019-11-19 18:00:00 8.8 3 Norte 21 Oeste 0 -- -- 59
2019-11-19 17:00:00 10.6 5 Noroeste 23 Oeste 0 -- -- 46
2019-11-19 16:00:00 11.7 9 Noroeste 22 Noroeste 0 -- -- 44
2019-11-19 15:00:00 11.7 9 Noroeste 28 Noroeste 0 -- -- 39
2019-11-19 14:00:00 11.2 8 Oeste 28 Oeste 0 -- -- 48
2019-11-19 13:00:00 9.7 11 Noroeste 27 Noroeste 0 -- -- 52
2019-11-19 12:00:00 8.2 11 Noroeste 26 Noroeste 0 -- -- 57
2019-11-19 11:00:00 6.6 10 Noroeste 22 Noroeste 0 -- -- 62
2019-11-19 10:00:00 3.9 9 Noroeste 21 Noroeste 0 -- -- 71
2019-11-19 09:00:00 0.7 9 Noroeste 19 Noroeste 0 -- -- 83
2019-11-19 08:00:00 0.8 8 Norte 21 Norte 0 -- -- 81
2019-11-19 07:00:00 0.6 6 Noroeste 14 Noroeste 0 -- -- 81
2019-11-19 06:00:00 0.6 4 Noroeste 12 Noroeste 0 -- -- 79
2019-11-19 05:00:00 1.5 3 Noroeste 13 Norte 0 -- -- 76
2019-11-19 04:00:00 2.6 4 Noroeste 18 Norte 0 -- -- 73
2019-11-19 03:00:00 3.6 8 Norte 20 Noroeste 0 -- -- 69
2019-11-19 02:00:00 4.1 8 Noroeste 23 Oeste 0 -- -- 68
2019-11-19 01:00:00 4.4 5 Noroeste 20 Noroeste 0 -- -- 67
2019-11-19 00:00:00 4.4 8 Noroeste 20 Oeste 0 -- -- 69
2019-11-18 23:00:00 3.2 3 Noroeste 9 Noroeste 0 -- -- 73
2019-11-18 22:00:00 2.2 2 Norte 5 Norte 0 -- -- 75
2019-11-18 21:00:00 3.1 0 Calma 6 Noroeste 0 -- -- 70
2019-11-18 20:00:00 4.1 3 Noroeste 8 Noroeste 0 -- -- 67
2019-11-18 19:00:00 5.4 3 Noroeste 9 Noroeste 0 -- -- 61
2019-11-18 18:00:00 7.9 0 Calma 20 Norte 0 -- -- 54
2019-11-18 17:00:00 9.8 8 Norte 23 Norte 0 -- -- 46
2019-11-18 16:00:00 10.8 8 Norte 27 Noroeste 0 -- -- 44
2019-11-18 15:00:00 10.9 7 Noroeste 19 Norte 0 -- -- 47
2019-11-18 14:00:00 11 6 Norte 17 Norte 0 -- -- 49
2019-11-18 13:00:00 12.1 4 Norte 17 Nordeste 0 -- -- 46
2019-11-18 12:00:00 11.3 8 Noroeste 21 Noroeste 0 -- -- 51
2019-11-18 11:00:00 10 6 Noroeste 23 Noroeste 0 -- -- 61
2019-11-18 10:00:00 7.7 6 Noroeste 18 Oeste 0 -- -- 71
2019-11-18 09:00:00 4.5 4 Noroeste 14 Noroeste 0 -- -- 84
2019-11-18 08:00:00 3.9 3 Noroeste 13 Noroeste 0 -- -- 83
2019-11-18 07:00:00 5.1 5 Noroeste 19 Noroeste 0 -- -- 80
2019-11-18 06:00:00 4.5 6 Noroeste 19 Noroeste 0 -- -- 89
2019-11-18 05:00:00 5.1 10 Noroeste 21 Noroeste 0 -- -- 92
2019-11-18 04:00:00 5.8 5 Norte 17 Noroeste 0 -- -- 91
2019-11-18 03:00:00 6.4 7 Noroeste 18 Noroeste 0 -- -- 91
2019-11-18 02:00:00 6.8 6 Noroeste 27 Noroeste 0 -- -- 90
2019-11-18 01:00:00 7.2 8 Noroeste 26 Noroeste 0 -- -- 89
2019-11-18 00:00:00 7.2 5 Norte 17 Noroeste 0 -- -- 91
2019-11-17 23:00:00 7.5 7 Noroeste 25 Oeste 0 -- -- 91
2019-11-17 22:00:00 7.8 8 Noroeste 26 Noroeste 0 -- -- 91
2019-11-17 21:00:00 7.6 9 Norte 26 Noroeste 0 -- -- 87
2019-11-17 20:00:00 7.5 8 Noroeste 32 Oeste 0 -- -- 87
2019-11-17 19:00:00 7.6 12 Noroeste 38 Noroeste 0 -- -- 83
2019-11-17 18:00:00 7.8 12 Noroeste 33 Oeste 0 -- -- 82
2019-11-17 17:00:00 8.2 8 Noroeste 33 Oeste 0 -- -- 76
2019-11-17 16:00:00 10 9 Noroeste 39 Noroeste 0 -- -- 66
2019-11-17 15:00:00 10.6 15 Noroeste 48 Noroeste 0 -- -- 59
2019-11-17 14:00:00 10.8 19 Noroeste 51 Noroeste 0 -- -- 56
2019-11-17 13:00:00 9.5 14 Noroeste 38 Noroeste 0 -- -- 56
2019-11-17 12:00:00 7.2 11 Noroeste 37 Noroeste 0 -- -- 65
2019-11-17 11:00:00 6.1 16 Noroeste 46 Noroeste 0 -- -- 64
2019-11-17 10:00:00 5.1 17 Noroeste 40 Noroeste 0 -- -- 67
2019-11-17 09:00:00 3.3 14 Noroeste 39 Noroeste 0 -- -- 73
2019-11-17 08:00:00 1.9 12 Noroeste 32 Noroeste 0 -- -- 77
2019-11-17 07:00:00 1.4 9 Norte 28 Noroeste 0 -- -- 79
2019-11-17 06:00:00 1.8 10 Noroeste 31 Noroeste 0 -- -- 77
2019-11-17 05:00:00 1.7 4 Norte 12 Noroeste 0 -- -- 78
2019-11-17 04:00:00 2.3 3 Nordeste 13 Norte 0 -- -- 75
2019-11-17 03:00:00 2.4 0 Calma 24 Noroeste 0 -- -- 76
2019-11-17 02:00:00 2.9 8 Noroeste 28 Norte 0 -- -- 76
2019-11-17 01:00:00 4.2 7 Norte 24 Noroeste 0 -- -- 70
2019-11-17 00:00:00 4.6 11 Norte 30 Oeste 0 -- -- 70
2019-11-16 23:00:00 5.4 6 Noroeste 23 Noroeste 0 -- -- 67
2019-11-16 22:00:00 5.4 7 Norte 19 Norte 0 -- -- 64
2019-11-16 21:00:00 5.9 4 Noroeste 23 Norte 0 -- -- 62
2019-11-16 20:00:00 6.3 10 Noroeste 26 Noroeste 0 -- -- 59
2019-11-16 19:00:00 6 3 Noroeste 11 Noroeste 0 -- -- 54
2019-11-16 18:00:00 8 2 Oeste 11 Norte 0 -- -- 47
2019-11-16 17:00:00 10.5 5 Noroeste 27 Oeste 0 -- -- 39
2019-11-16 16:00:00 11.2 8 Noroeste 25 Noroeste 0 -- -- 32
2019-11-16 15:00:00 11.7 6 Oeste 25 Oeste 0 -- -- 41
2019-11-16 14:00:00 11.7 5 Oeste 24 Oeste 0 -- -- 46
2019-11-16 13:00:00 11.1 5 Oeste 16 Noroeste 0 -- -- 50
2019-11-16 12:00:00 9.6 3 Oeste 10 Noroeste 0 -- -- 56
2019-11-16 11:00:00 7.3 5 Oeste 19 Noroeste 0 -- -- 66
2019-11-16 10:00:00 4.4 8 Norte 20 Noroeste 0 -- -- 77
2019-11-16 09:00:00 2 8 Norte 19 Noroeste 0 -- -- 84
2019-11-16 08:00:00 1.5 6 Noroeste 20 Norte 0 -- -- 85
2019-11-16 07:00:00 1.6 6 Norte 17 Norte 0 -- -- 85
2019-11-16 06:00:00 2 7 Norte 23 Norte 0 -- -- 85
2019-11-16 05:00:00 1.7 5 Noroeste 17 Norte 0 -- -- 88
2019-11-16 04:00:00 1.9 5 Noroeste 14 Noroeste 0 -- -- 89
2019-11-16 03:00:00 2 4 Noroeste 10 Noroeste 0 -- -- 89
2019-11-16 02:00:00 2.3 3 Noroeste 10 Noroeste 0 -- -- 87
2019-11-16 01:00:00 3 4 Noroeste 15 Noroeste 0 -- -- 86
2019-11-16 00:00:00 3.6 6 Noroeste 16 Noroeste 0 -- -- 84
2019-11-15 23:00:00 3.4 4 Noroeste 8 Noroeste 0 -- -- 85
2019-11-15 22:00:00 4.2 2 Noroeste 10 Norte 0 -- -- 82
2019-11-15 21:00:00 5 0 Calma 10 Norte 0 -- -- 78
2019-11-15 20:00:00 5.6 0 Calma 10 Noroeste 0 -- -- 75
2019-11-15 19:00:00 7.1 0 Calma 12 Oeste 0 -- -- 69
2019-11-15 18:00:00 8.4 4 Oeste 24 Oeste 0 -- -- 66
2019-11-15 17:00:00 9.4 6 Noroeste 25 Oeste 0 -- -- 60
2019-11-15 16:00:00 9.9 8 Noroeste 31 Noroeste 0 -- -- 54
2019-11-15 15:00:00 10.6 13 Noroeste 39 Noroeste 0 -- -- 53
2019-11-15 14:00:00 10.4 10 Noroeste 34 Oeste 0 -- -- 59
2019-11-15 13:00:00 9.6 13 Noroeste 38 Oeste 0 -- -- 61
2019-11-15 12:00:00 9 13 Noroeste 43 Oeste 0 -- -- 67
2019-11-15 11:00:00 7.6 15 Noroeste 39 Oeste 0 -- -- 69
2019-11-15 10:00:00 6.1 10 Noroeste 44 Noroeste 0 -- -- 78
2019-11-15 09:00:00 3.9 6 Noroeste 15 Noroeste 0 -- -- 88
2019-11-15 08:00:00 3.4 2 Nordeste 21 Noroeste 0 -- -- 87
2019-11-15 07:00:00 3.5 8 Noroeste 24 Noroeste 0 -- -- 88
2019-11-15 06:00:00 3.7 7 Noroeste 26 Norte 0 -- -- 89
2019-11-15 05:00:00 3.8 9 Noroeste 31 Noroeste 0 -- -- 90
2019-11-15 04:00:00 3.9 9 Noroeste 25 Noroeste 0 -- -- 91
2019-11-15 03:00:00 4 7 Noroeste 33 Oeste 0 -- -- 92
2019-11-15 02:00:00 3 6 Noroeste 22 Noroeste 0.2 -- -- 94
2019-11-15 01:00:00 2.8 6 Oeste 26 Oeste 0.2 -- -- 94
2019-11-15 00:00:00 3.5 13 Noroeste 53 Noroeste 0.4 -- -- 90
2019-11-14 23:00:00 6.2 9 Oeste 35 Noroeste 0 -- -- 79
2019-11-14 22:00:00 5.7 9 Oeste 45 Noroeste 0 -- -- 85
2019-11-14 21:00:00 5.5 8 Noroeste 44 Noroeste 0.2 -- -- 88
2019-11-14 20:00:00 6.1 2 Noroeste 15 Oeste 0 -- -- 75
2019-11-14 19:00:00 6.6 5 Noroeste 29 Oeste 0 -- -- 76
2019-11-14 18:00:00 7.3 7 Noroeste 33 Noroeste 0 -- -- 75
2019-11-14 17:00:00 8.2 8 Oeste 27 Oeste 0 -- -- 70
2019-11-14 16:00:00 8.4 10 Noroeste 32 Oeste 0 -- -- 66
2019-11-14 15:00:00 8.2 11 Noroeste 40 Oeste 0 -- -- 67
2019-11-14 14:00:00 8.5 9 Oeste 32 Sudoeste 0 -- -- 71
2019-11-14 13:00:00 7.5 12 Noroeste 47 Noroeste 0 -- -- 78
2019-11-14 12:00:00 12.4 16 Oeste 59 Oeste 0 -- -- 68
2019-11-14 11:00:00 10.9 13 Noroeste 44 Oeste 0 -- -- 74
2019-11-14 10:00:00 9.9 17 Oeste 47 Oeste 0 -- -- 74
2019-11-14 09:00:00 9.3 17 Oeste 52 Noroeste 0 -- -- 73
2019-11-14 08:00:00 9.5 11 Oeste 43 Oeste 0 -- -- 74
2019-11-14 07:00:00 10.6 13 Noroeste 44 Oeste 0 -- -- 76
2019-11-14 06:00:00 11 13 Oeste 52 Oeste 0 -- -- 78
2019-11-14 05:00:00 11 11 Oeste 49 Oeste 0 -- -- 80
2019-11-14 04:00:00 10.9 6 Oeste 26 Noroeste 0 -- -- 85
2019-11-14 03:00:00 11 7 Oeste 30 Oeste 0 -- -- 85
2019-11-14 02:00:00 9.1 5 Oeste 21 Oeste 0 -- -- 88
2019-11-14 01:00:00 8 3 Noroeste 12 Noroeste 0 -- -- 86
2019-11-14 00:00:00 6.3 2 Noroeste 6 Noroeste 0 -- -- 86
2019-11-13 23:00:00 7.3 3 Norte 10 Noroeste 0 -- -- 82
2019-11-13 22:00:00 6.6 3 Norte 8 Noroeste 0 -- -- 85
2019-11-13 21:00:00 7 2 Norte 5 Noroeste 0 -- -- 84
2019-11-13 20:00:00 8.5 3 Noroeste 9 Noroeste 0 -- -- 76
2019-11-13 19:00:00 9.5 2 Noroeste 5 Sudoeste 0 -- -- 77
2019-11-13 18:00:00 11.6 0 Calma 8 Noroeste 0 -- -- 70
2019-11-13 17:00:00 14.2 4 Norte 17 Noroeste 0 -- -- 57
2019-11-13 16:00:00 15.2 5 Noroeste 22 Noroeste 0 -- -- 54
2019-11-13 15:00:00 15.1 7 Norte 21 Noroeste 0 -- -- 57
2019-11-13 14:00:00 14.7 9 Norte 27 Noroeste 0 -- -- 64
2019-11-13 13:00:00 13.6 13 Noroeste 31 Noroeste 0.2 -- -- 78
2019-11-13 12:00:00 12.3 13 Norte 36 Noroeste 2.4 -- -- 88
2019-11-13 11:00:00 13.5 15 Noroeste 44 Noroeste 0 -- -- 84
2019-11-13 10:00:00 11.7 11 Noroeste 29 Noroeste 0 -- -- 89
2019-11-13 09:00:00 10.6 8 Noroeste 29 Oeste 0 -- -- 94
2019-11-13 08:00:00 10.1 9 Norte 21 Norte 0 -- -- 93
2019-11-13 07:00:00 9.4 6 Norte 26 Norte 0.2 -- -- 93
2019-11-13 06:00:00 9.1 11 Noroeste 42 Norte 0 -- -- 92
2019-11-13 05:00:00 9.6 10 Noroeste 39 Norte 0 -- -- 83
2019-11-13 04:00:00 9.3 9 Noroeste 33 Noroeste 0 -- -- 73
2019-11-13 03:00:00 8.9 9 Noroeste 31 Noroeste 0 -- -- 73
2019-11-13 02:00:00 8.8 9 Noroeste 28 Noroeste 0 -- -- 71
2019-11-13 01:00:00 8.6 8 Norte 31 Norte 0 -- -- 68
2019-11-13 00:00:00 9 10 Norte 29 Noroeste 0 -- -- 62
2019-11-12 23:00:00 9.8 12 Noroeste 30 Noroeste 0 -- -- 58
2019-11-12 22:00:00 9.6 10 Norte 23 Noroeste 0 -- -- 59
2019-11-12 21:00:00 8.9 3 Oeste 18 Noroeste 0 -- -- 63
2019-11-12 20:00:00 8.1 2 Sur 9 Norte 0 -- -- 62
2019-11-12 19:00:00 9.3 2 Noroeste 6 Noroeste 0 -- -- 57
2019-11-12 18:00:00 12.1 2 Oeste 15 Noroeste 0 -- -- 50
2019-11-12 17:00:00 13.9 4 Noroeste 24 Noroeste 0 -- -- 44
2019-11-12 16:00:00 14.8 9 Noroeste 27 Norte 0 -- -- 40
2019-11-12 15:00:00 14.7 16 Noroeste 36 Oeste 0 -- -- 40
2019-11-12 14:00:00 15.2 12 Noroeste 33 Noroeste 0 -- -- 41
2019-11-12 13:00:00 14.1 12 Noroeste 27 Noroeste 0 -- -- 42
2019-11-12 12:00:00 13.5 11 Noroeste 26 Noroeste 0 -- -- 43
2019-11-12 11:00:00 12 9 Noroeste 26 Oeste 0 -- -- 47
2019-11-12 10:00:00 10.7 9 Oeste 23 Oeste 0 -- -- 49
2019-11-12 09:00:00 9.3 9 Oeste 23 Oeste 0 -- -- 52
2019-11-12 08:00:00 8.3 7 Noroeste 17 Noroeste 0 -- -- 50
2019-11-12 07:00:00 7.7 5 Noroeste 22 Norte 0 -- -- 49
2019-11-12 06:00:00 7.7 5 Norte 24 Noroeste 0 -- -- 51
2019-11-12 05:00:00 8 7 Noroeste 19 Noroeste 0 -- -- 51
2019-11-12 04:00:00 8.1 9 Noroeste 24 Oeste 0 -- -- 50
2019-11-12 03:00:00 8 7 Noroeste 27 Noroeste 0 -- -- 54
2019-11-12 02:00:00 7.7 13 Noroeste 37 Oeste 0 -- -- 56
2019-11-12 01:00:00 8.1 11 Noroeste 29 Noroeste 0 -- -- 56
2019-11-12 00:00:00 8.3 10 Noroeste 24 Noroeste 0 -- -- 55
2019-11-11 23:00:00 8.8 12 Noroeste 28 Oeste 0 -- -- 57
2019-11-11 22:00:00 9.7 7 Noroeste 25 Norte 0 -- -- 57
2019-11-11 21:00:00 11.1 12 Norte 35 Noroeste 0 -- -- 56
2019-11-11 20:00:00 10.8 3 Norte 13 Norte 0 -- -- 61
2019-11-11 19:00:00 11.8 5 Noroeste 28 Noroeste 0 -- -- 59
2019-11-11 18:00:00 12.3 12 Noroeste 30 Norte 0 -- -- 58
2019-11-11 17:00:00 13.1 8 Noroeste 26 Noroeste 0 -- -- 55
2019-11-11 16:00:00 13.7 4 Noroeste 17 Oeste 0 -- -- 52
2019-11-11 15:00:00 13.2 6 Oeste 18 Noroeste 0 -- -- 51
2019-11-11 14:00:00 12.4 6 Oeste 42 Oeste 0 -- -- 52
2019-11-11 13:00:00 12.2 12 Noroeste 35 Oeste 0 -- -- 50
2019-11-11 12:00:00 11.4 10 Noroeste 30 Oeste 0 -- -- 55
2019-11-11 11:00:00 9.1 6 Noroeste 25 Noroeste 0 -- -- 61
2019-11-11 10:00:00 7 9 Norte 30 Noroeste 0 -- -- 67
2019-11-11 09:00:00 5.7 9 Noroeste 32 Norte 0 -- -- 68
2019-11-11 08:00:00 4.4 10 Noroeste 29 Oeste 0 -- -- 73
2019-11-11 07:00:00 4.3 12 Norte 30 Noroeste 0 -- -- 70
2019-11-11 06:00:00 4.6 10 Noroeste 27 Noroeste 0 -- -- 67
2019-11-11 05:00:00 5.4 11 Noroeste 28 Oeste 0 -- -- 62
2019-11-11 04:00:00 6 12 Oeste 35 Oeste 0 -- -- 59
2019-11-11 03:00:00 5.4 5 Noroeste 19 Noroeste 0 -- -- 59
2019-11-11 02:00:00 6.1 9 Noroeste 23 Noroeste 0 -- -- 55
2019-11-11 01:00:00 6.4 12 Noroeste 33 Oeste 0 -- -- 53
2019-11-11 00:00:00 6.3 9 Noroeste 24 Norte 0 -- -- 54
2019-11-10 23:00:00 4.7 2 Noroeste 8 Noroeste 0 -- -- 66
2019-11-10 22:00:00 6.3 2 Oeste 21 Noroeste 0 -- -- 62
2019-11-10 21:00:00 6.3 3 Noroeste 11 Noroeste 0 -- -- 64
2019-11-10 20:00:00 7.4 3 Noroeste 19 Noroeste 0 -- -- 61
2019-11-10 19:00:00 9 6 Noroeste 30 Oeste 0 -- -- 55
2019-11-10 18:00:00 10.3 8 Norte 26 Noroeste 0 -- -- 48
2019-11-10 17:00:00 10.8 8 Noroeste 28 Oeste 0 -- -- 44
2019-11-10 16:00:00 12.1 8 Noroeste 28 Oeste 0 -- -- 41
2019-11-10 15:00:00 12.3 9 Norte 35 Noroeste 0 -- -- 43
2019-11-10 14:00:00 12.5 11 Norte 40 Norte 0 -- -- 40
2019-11-10 13:00:00 12 9 Noroeste 23 Norte 0 -- -- 43
2019-11-10 12:00:00 11.1 6 Oeste 25 Oeste 0 -- -- 51
2019-11-10 11:00:00 9.8 8 Noroeste 33 Noroeste 0 -- -- 56
2019-11-10 10:00:00 7.3 10 Noroeste 33 Noroeste 0 -- -- 70
2019-11-10 09:00:00 5.5 10 Noroeste 24 Oeste 0 -- -- 74
2019-11-10 08:00:00 5.1 6 Noroeste 22 Oeste 0 -- -- 77
2019-11-10 07:00:00 5.1 5 Noroeste 18 Noroeste 0 -- -- 78
2019-11-10 06:00:00 6.2 8 Noroeste 24 Noroeste 0 -- -- 73
2019-11-10 05:00:00 6.3 7 Noroeste 32 Noroeste 0 -- -- 77
2019-11-10 04:00:00 7.3 9 Noroeste 35 Norte 0 -- -- 74
2019-11-10 03:00:00 8.6 6 Noroeste 23 Norte 0 -- -- 82
2019-11-10 02:00:00 9.1 10 Noroeste 35 Oeste 0 -- -- 84
2019-11-10 01:00:00 9.4 8 Noroeste 35 Noroeste 0 -- -- 83
2019-11-10 00:00:00 9 13 Noroeste 44 Oeste 0 -- -- 84
2019-11-09 23:00:00 9.2 10 Noroeste 32 Noroeste 0 -- -- 79
2019-11-09 22:00:00 9.5 8 Norte 28 Oeste 0 -- -- 72
2019-11-09 21:00:00 10 9 Noroeste 36 Norte 0 -- -- 67
2019-11-09 20:00:00 10.8 12 Noroeste 30 Noroeste 0 -- -- 59
2019-11-09 19:00:00 10.9 7 Noroeste 31 Noroeste 0 -- -- 53
2019-11-09 18:00:00 11 9 Noroeste 41 Noroeste 0 -- -- 51
2019-11-09 17:00:00 11.7 10 Oeste 42 Noroeste 0 -- -- 50
2019-11-09 16:00:00 13 12 Noroeste 39 Noroeste 0 -- -- 47
2019-11-09 15:00:00 13 13 Oeste 53 Oeste 0 -- -- 46
2019-11-09 14:00:00 13.3 15 Noroeste 42 Noroeste 0 -- -- 46
2019-11-09 13:00:00 13.3 12 Oeste 32 Oeste 0 -- -- 47
2019-11-09 12:00:00 11.3 8 Noroeste 29 Noroeste 0 -- -- 55
2019-11-09 11:00:00 8.7 8 Oeste 26 Noroeste 0 -- -- 61
2019-11-09 10:00:00 7.8 10 Noroeste 35 Noroeste 0 -- -- 62
2019-11-09 09:00:00 7.4 11 Noroeste 42 Oeste 0 -- -- 61
2019-11-09 08:00:00 7.4 13 Oeste 33 Noroeste 0 -- -- 59
2019-11-09 07:00:00 6.6 9 Noroeste 35 Noroeste 0 -- -- 63
2019-11-09 06:00:00 6.3 13 Noroeste 33 Oeste 0 -- -- 65
2019-11-09 05:00:00 6.6 14 Noroeste 40 Oeste 0 -- -- 64
2019-11-09 04:00:00 6.2 10 Noroeste 28 Oeste 0 -- -- 67
2019-11-09 03:00:00 6.1 7 Norte 24 Noroeste 0 -- -- 67
2019-11-09 02:00:00 6.5 5 Noroeste 22 Norte 0 -- -- 64
2019-11-09 01:00:00 7.1 5 Noroeste 23 Noroeste 0 -- -- 61
2019-11-09 00:00:00 7.5 8 Noroeste 26 Noroeste 0 -- -- 59
2019-11-08 23:00:00 7.8 10 Noroeste 35 Noroeste 0 -- -- 59
2019-11-08 22:00:00 8.3 8 Noroeste 29 Norte 0 -- -- 56
2019-11-08 21:00:00 8.6 8 Noroeste 28 Noroeste 0 -- -- 54
2019-11-08 20:00:00 8.6 6 Noroeste 23 Norte 0 -- -- 59
2019-11-08 19:00:00 9 4 Noroeste 27 Noroeste 0 -- -- 57
2019-11-08 18:00:00 9.9 8 Noroeste 36 Noroeste 0 -- -- 54
2019-11-08 17:00:00 11.1 12 Noroeste 41 Noroeste 0 -- -- 50
2019-11-08 16:00:00 11.7 14 Noroeste 45 Noroeste 0 -- -- 49
2019-11-08 15:00:00 11.5 15 Noroeste 47 Noroeste 0 -- -- 48
2019-11-08 14:00:00 11.2 20 Noroeste 47 Noroeste 0 -- -- 49
2019-11-08 13:00:00 10.8 13 Noroeste 42 Oeste 0 -- -- 51
2019-11-08 12:00:00 9.7 14 Noroeste 39 Noroeste 0 -- -- 54
2019-11-08 11:00:00 6.9 10 Noroeste 36 Oeste 0 -- -- 67
2019-11-08 10:00:00 6.5 17 Noroeste 39 Noroeste 0 -- -- 68
2019-11-08 09:00:00 4.8 10 Oeste 28 Sudoeste 0 -- -- 74
2019-11-08 08:00:00 3.9 5 Norte 22 Oeste 0 -- -- 76
2019-11-08 07:00:00 4.1 9 Norte 27 Noroeste 0 -- -- 76
2019-11-08 06:00:00 4.1 8 Norte 26 Noroeste 0 -- -- 79
2019-11-08 05:00:00 4.1 8 Noroeste 21 Oeste 0 -- -- 81
2019-11-08 04:00:00 4.5 6 Noroeste 23 Norte 0 -- -- 83
2019-11-08 03:00:00 4.4 6 Noroeste 20 Norte 0 -- -- 86
2019-11-08 02:00:00 4.7 6 Noroeste 18 Noroeste 0 -- -- 85
2019-11-08 01:00:00 5.2 8 Norte 30 Noroeste 0 -- -- 84
2019-11-08 00:00:00 6.4 12 Noroeste 49 Oeste 0 -- -- 82